This is the latest recevied weather packets stored in our database for station/object OM1PU-6. If no packets are shown the sender has not sent any weather packets the latest 10 day(s).
| Time | Temp. | Humidity | Pressure | Rain* | Wind** | Luminosity | Snow |
|---|---|---|---|---|---|---|---|
| 1777278792 | 15.56° C | 40% | 1035.9 hPa | 0 mm | - | - | - |
| 1777277892 | 15.56° C | 41% | 1036.1 hPa | 0 mm | - | - | - |
| 1777276992 | 16.11° C | 39% | 1036.1 hPa | 0 mm | - | - | - |
| 1777276092 | 14.44° C | 42% | 1036 hPa | 0 mm | - | - | - |
| 1777275192 | 14.44° C | 43% | 1036.3 hPa | 0 mm | - | - | - |
| 1777274292 | 13.89° C | 46% | 1036.1 hPa | 0 mm | - | - | - |
| 1777273392 | 12.22° C | 52% | 1036.3 hPa | 0 mm | - | - | - |
| 1777272492 | 11.11° C | 56% | 1036.4 hPa | 0 mm | - | - | - |
| 1777271593 | 9.44° C | 59% | 1036.6 hPa | 0 mm | - | - | - |
| 1777270692 | 8.89° C | 62% | 1036.5 hPa | 0 mm | - | - | - |
| 1777269792 | 8.33° C | 64% | 1036.4 hPa | 0 mm | - | - | - |
| 1777268892 | 7.78° C | 65% | 1036.3 hPa | 0 mm | - | - | - |
| 1777267993 | 7.22° C | 70% | 1036.4 hPa | 0 mm | - | - | - |
| 1777267093 | 6.67° C | 71% | 1036.1 hPa | 0 mm | - | - | - |
| 1777266192 | 6.67° C | 70% | 1036.1 hPa | 0 mm | - | - | - |
| 1777265292 | 5.56° C | 74% | 1036.2 hPa | 0 mm | - | - | - |
| 1777264392 | 5° C | 75% | 1036 hPa | 0 mm | - | - | - |
| 1777263492 | 5° C | 73% | 1035.7 hPa | 0 mm | - | - | - |
| 1777262592 | 5° C | 73% | 1035.7 hPa | 0 mm | - | - | - |
| 1777261692 | 5° C | 72% | 1035.6 hPa | 0 mm | - | - | - |
| 1777260792 | 5° C | 73% | 1035.4 hPa | 0 mm | - | - | - |
| 1777259892 | 4.44° C | 76% | 1035.7 hPa | 0 mm | - | - | - |
| 1777258991 | 5.56° C | 73% | 1035.6 hPa | 0 mm | - | - | - |
| 1777258092 | 5.56° C | 71% | 1035.6 hPa | 0 mm | - | - | - |
| 1777257192 | 6.11° C | 71% | 1035.6 hPa | 0 mm | - | - | - |
* Rain latest 24 hours (hover to see other rain measurements)
** Current wind speed in m/s (hover to see current wind gust speed)